Wetterdaten: Woche 12.01.09 - 18.01.09 (KW3)
Datum Zeit Temp. A. Feuchte A. Luftdruck Regen Wind Richtung Taupunkt Windchill Windben
12.01.2009 00:00 -7,8 C 87 % 1038,7 hPa 0,0 l/m 1,1 km/h (1 Bft) O-SO -9,6 C -7,8 C 6,4 km/h (2 Bft)
12.01.2009 01:00 -7,8 C 87 % 1037,9 hPa 0,0 l/m 1,2 km/h (1 Bft) O-SO -9,6 C -7,8 C 5,6 km/h (1 Bft)
12.01.2009 02:00 -8,0 C 87 % 1038,0 hPa 0,0 l/m 3,2 km/h (1 Bft) O -9,7 C -8,0 C 9,6 km/h (2 Bft)
12.01.2009 03:00 -8,1 C 88 % 1037,9 hPa 0,0 l/m 3,0 km/h (1 Bft) O-SO -9,7 C -8,1 C 8,1 km/h (2 Bft)
12.01.2009 04:00 -7,8 C 88 % 1037,8 hPa 0,0 l/m 1,5 km/h (1 Bft) S-SO -9,5 C -7,8 C 6,8 km/h (2 Bft)
12.01.2009 05:00 -7,6 C 88 % 1037,6 hPa 0,0 l/m 2,5 km/h (1 Bft) SO -9,3 C -7,6 C 12,9 km/h (3 Bft)
12.01.2009 06:00 -7,7 C 88 % 1037,2 hPa 0,0 l/m 3,5 km/h (1 Bft) S -9,3 C -7,7 C 16,9 km/h (3 Bft)
12.01.2009 07:00 -7,8 C 88 % 1036,9 hPa 0,0 l/m 2,9 km/h (1 Bft) S -9,5 C -7,8 C 12,5 km/h (3 Bft)
12.01.2009 08:00 -7,7 C 88 % 1037,0 hPa 0,0 l/m 2,4 km/h (1 Bft) SO -9,4 C -7,7 C 11,3 km/h (2 Bft)
12.01.2009 09:00 -7,4 C 88 % 1037,1 hPa 0,0 l/m 1,9 km/h (1 Bft) SO -9,1 C -7,4 C 10,9 km/h (2 Bft)
12.01.2009 10:00 -7,0 C 88 % 1036,9 hPa 0,0 l/m 2,2 km/h (1 Bft) SO -8,6 C -7,0 C 8,0 km/h (2 Bft)
12.01.2009 11:00 -6,8 C 88 % 1036,6 hPa 0,0 l/m 2,2 km/h (1 Bft) O-NO -8,5 C -6,8 C 8,0 km/h (2 Bft)
12.01.2009 12:00 -6,4 C 87 % 1035,8 hPa 0,0 l/m 2,2 km/h (1 Bft) S-SO -8,3 C -6,4 C 9,3 km/h (2 Bft)
12.01.2009 13:00 -6,4 C 86 % 1034,9 hPa 0,0 l/m 2,6 km/h (1 Bft) S-SO -8,3 C -6,4 C 8,0 km/h (2 Bft)
12.01.2009 14:00 -6,3 C 86 % 1034,3 hPa 0,0 l/m 2,5 km/h (1 Bft) O-SO -8,2 C -6,3 C 9,3 km/h (2 Bft)
12.01.2009 15:00 -6,3 C 86 % 1034,1 hPa 0,0 l/m 2,8 km/h (1 Bft) SO -8,3 C -6,3 C 8,9 km/h (2 Bft)
12.01.2009 16:00 -6,5 C 86 % 1033,9 hPa 0,0 l/m 3,1 km/h (1 Bft) SO -8,4 C -6,5 C 12,1 km/h (2 Bft)
12.01.2009 17:00 -6,6 C 87 % 1033,8 hPa 0,0 l/m 2,6 km/h (1 Bft) S-SO -8,3 C -6,6 C 11,3 km/h (2 Bft)
12.01.2009 18:00 -6,6 C 87 % 1033,6 hPa 0,0 l/m 2,9 km/h (1 Bft) S-SO -8,4 C -6,6 C 10,9 km/h (2 Bft)
12.01.2009 19:00 -6,8 C 86 % 1033,3 hPa 0,0 l/m 3,0 km/h (1 Bft) S-SO -8,7 C -6,8 C 12,1 km/h (2 Bft)
12.01.2009 20:00 -6,8 C 86 % 1033,0 hPa 0,0 l/m 2,6 km/h (1 Bft) S-SO -8,8 C -6,8 C 15,3 km/h (3 Bft)
12.01.2009 21:00 -6,9 C 86 % 1032,7 hPa 0,0 l/m 2,4 km/h (1 Bft) O-SO -8,8 C -6,9 C 10,0 km/h (2 Bft)
12.01.2009 22:00 -6,8 C 86 % 1032,2 hPa 0,0 l/m 2,4 km/h (1 Bft) SO -8,8 C -6,8 C 10,1 km/h (2 Bft)
12.01.2009 23:00 -6,8 C 87 % 1031,5 hPa 0,0 l/m 2,0 km/h (1 Bft) O -8,6 C -6,8 C 6,8 km/h (2 Bft)
13.01.2009 00:00 -6,8 C 86 % 1031,0 hPa 0,0 l/m 1,8 km/h (1 Bft) O-SO -8,7 C -6,8 C 7,2 km/h (2 Bft)
13.01.2009 01:00 -6,9 C 86 % 1030,3 hPa 0,0 l/m 2,1 km/h (1 Bft) O-SO -8,8 C -6,9 C 9,6 km/h (2 Bft)
13.01.2009 02:00 -6,9 C 86 % 1029,9 hPa 0,0 l/m 1,6 km/h (1 Bft) O -8,8 C -6,9 C 7,6 km/h (2 Bft)
13.01.2009 03:00 -6,9 C 86 % 1029,5 hPa 0,0 l/m 1,9 km/h (1 Bft) SO -8,8 C -6,9 C 7,6 km/h (2 Bft)
13.01.2009 04:00 -6,9 C 86 % 1029,3 hPa 0,0 l/m 1,0 km/h (0 Bft) O -8,9 C -6,9 C 4,8 km/h (1 Bft)
13.01.2009 05:00 -7,0 C 86 % 1029,3 hPa 0,0 l/m 1,8 km/h (1 Bft) S-SO -9,0 C -7,0 C 7,6 km/h (2 Bft)
13.01.2009 06:00 -7,1 C 85 % 1029,1 hPa 0,0 l/m 1,2 km/h (1 Bft) O -9,1 C -7,1 C 6,8 km/h (2 Bft)
13.01.2009 07:00 -7,1 C 86 % 1029,1 hPa 0,0 l/m 1,2 km/h (1 Bft) S -9,0 C -7,1 C 7,6 km/h (2 Bft)
13.01.2009 08:00 -7,1 C 85 % 1028,9 hPa 0,0 l/m 2,3 km/h (1 Bft) S-SO -9,2 C -7,1 C 10,5 km/h (2 Bft)
13.01.2009 09:00 -7,1 C 85 % 1029,3 hPa 0,0 l/m 2,8 km/h (1 Bft) S-SO -9,2 C -7,1 C 10,4 km/h (2 Bft)
13.01.2009 10:00 -6,9 C 85 % 1028,9 hPa 0,0 l/m 2,6 km/h (1 Bft) SO -9,1 C -6,9 C 8,9 km/h (2 Bft)
13.01.2009 11:00 -6,7 C 84 % 1028,2 hPa 0,0 l/m 1,8 km/h (1 Bft) S -8,9 C -6,7 C 8,9 km/h (2 Bft)
13.01.2009 12:00 -6,4 C 84 % 1027,5 hPa 0,0 l/m 2,7 km/h (1 Bft) S -8,6 C -6,4 C 10,9 km/h (2 Bft)
13.01.2009 13:00 -6,2 C 83 % 1026,4 hPa 0,0 l/m 2,3 km/h (1 Bft) O -8,6 C -6,2 C 12,1 km/h (2 Bft)
13.01.2009 14:00 -6,1 C 84 % 1025,6 hPa 0,0 l/m 2,5 km/h (1 Bft) SO -8,5 C -6,1 C 9,3 km/h (2 Bft)
13.01.2009 15:00 -6,2 C 85 % 1025,4 hPa 0,0 l/m 1,8 km/h (1 Bft) O -8,3 C -6,2 C 10,9 km/h (2 Bft)
13.01.2009 16:00 -6,3 C 85 % 1025,2 hPa 0,0 l/m 2,5 km/h (1 Bft) O-SO -8,3 C -6,3 C 9,6 km/h (2 Bft)
13.01.2009 17:00 -6,3 C 85 % 1024,8 hPa 0,0 l/m 2,1 km/h (1 Bft) S-SO -8,4 C -6,3 C 7,3 km/h (2 Bft)
13.01.2009 18:00 -6,4 C 85 % 1024,6 hPa 0,0 l/m 2,5 km/h (1 Bft) O-SO -8,5 C -6,4 C 8,0 km/h (2 Bft)
13.01.2009 19:00 -6,6 C 86 % 1024,3 hPa 0,0 l/m 2,1 km/h (1 Bft) O-SO -8,5 C -6,6 C 8,0 km/h (2 Bft)
13.01.2009 20:00 -6,8 C 86 % 1023,8 hPa 0,0 l/m 2,2 km/h (1 Bft) SW -8,7 C -6,8 C 8,8 km/h (2 Bft)
13.01.2009 21:00 -6,9 C 86 % 1023,5 hPa 0,0 l/m 2,5 km/h (1 Bft) S-SO -8,8 C -6,9 C 8,4 km/h (2 Bft)
13.01.2009 22:00 -6,9 C 87 % 1022,8 hPa 0,0 l/m 2,3 km/h (1 Bft) S-SO -8,7 C -6,9 C 7,6 km/h (2 Bft)
13.01.2009 23:00 -6,9 C 88 % 1022,1 hPa 0,0 l/m 1,7 km/h (1 Bft) O -8,6 C -6,9 C 7,6 km/h (2 Bft)
14.01.2009 00:00 -6,9 C 88 % 1021,3 hPa 0,0 l/m 1,8 km/h (1 Bft) O -8,5 C -6,9 C 7,2 km/h (2 Bft)
14.01.2009 01:00 -6,8 C 88 % 1020,4 hPa 0,0 l/m 1,3 km/h (1 Bft) O -8,4 C -6,8 C 6,4 km/h (2 Bft)
14.01.2009 02:00 -6,7 C 89 % 1020,1 hPa 0,0 l/m 1,2 km/h (1 Bft) S-SO -8,2 C -6,7 C 5,6 km/h (1 Bft)
14.01.2009 03:00 -6,5 C 89 % 1019,8 hPa 0,0 l/m 1,8 km/h (1 Bft) S-SO -8,0 C -6,5 C 7,2 km/h (2 Bft)
14.01.2009 04:00 -6,5 C 89 % 1019,3 hPa 0,0 l/m 1,5 km/h (1 Bft) S-SO -8,0 C -6,5 C 6,4 km/h (2 Bft)
14.01.2009 05:00 -6,5 C 89 % 1019,0 hPa 0,0 l/m 0,9 km/h (0 Bft) S-SO -8,0 C -6,5 C 6,8 km/h (2 Bft)
14.01.2009 06:00 -6,4 C 89 % 1018,9 hPa 0,0 l/m 0,4 km/h (0 Bft) N -7,9 C -6,4 C 3,6 km/h (1 Bft)
14.01.2009 07:00 -6,2 C 89 % 1019,0 hPa 0,0 l/m 0,4 km/h (0 Bft) N -7,8 C -6,2 C 4,8 km/h (1 Bft)
14.01.2009 08:00 -5,9 C 88 % 1018,9 hPa 0,0 l/m 0,8 km/h (0 Bft) S -7,6 C -5,9 C 4,4 km/h (1 Bft)
14.01.2009 09:00 -5,7 C 88 % 1018,9 hPa 0,0 l/m 0,5 km/h (0 Bft) S -7,4 C -5,7 C 4,8 km/h (1 Bft)
14.01.2009 10:00 -5,2 C 88 % 1018,9 hPa 0,0 l/m 0,5 km/h (0 Bft) N -6,9 C -5,2 C 4,0 km/h (1 Bft)
14.01.2009 11:00 -5,0 C 88 % 1018,2 hPa 0,0 l/m 0,4 km/h (0 Bft) O -6,7 C -5,0 C 2,4 km/h (1 Bft)
14.01.2009 12:00 -4,4 C 88 % 1017,6 hPa 0,0 l/m 0,4 km/h (0 Bft) N -6,2 C -4,4 C 2,0 km/h (1 Bft)
14.01.2009 13:00 -3,2 C 85 % 1016,8 hPa 0,0 l/m 0,0 km/h (0 Bft) N -5,5 C -3,2 C 2,0 km/h (1 Bft)
14.01.2009 14:00 -3,1 C 83 % 1016,5 hPa 0,0 l/m 0,8 km/h (0 Bft) N-NW -5,6 C -3,1 C 4,0 km/h (1 Bft)
14.01.2009 15:00 -2,9 C 83 % 1016,3 hPa 0,0 l/m 1,1 km/h (1 Bft) N-NO -5,4 C -2,9 C 4,8 km/h (1 Bft)
14.01.2009 16:00 -3,3 C 84 % 1016,8 hPa 0,0 l/m 1,1 km/h (1 Bft) NO -5,6 C -3,3 C 3,6 km/h (1 Bft)
14.01.2009 17:00 -3,5 C 85 % 1017,2 hPa 0,0 l/m 0,5 km/h (0 Bft) N -5,6 C -3,5 C 3,2 km/h (1 Bft)
14.01.2009 18:00 -3,6 C 86 % 1017,5 hPa 0,0 l/m 0,0 km/h (0 Bft) N -5,6 C -3,6 C 0,0 km/h (0 Bft)
14.01.2009 19:00 -3,7 C 86 % 1017,8 hPa 0,0 l/m 0,0 km/h (0 Bft) N -5,7 C -3,7 C 0,8 km/h (0 Bft)
14.01.2009 20:00 -3,7 C 87 % 1017,9 hPa 0,0 l/m 0,0 km/h (0 Bft) N -5,6 C -3,7 C 1,6 km/h (1 Bft)
14.01.2009 21:00 -3,8 C 87 % 1017,9 hPa 0,0 l/m 0,0 km/h (0 Bft) N -5,6 C -3,8 C 0,0 km/h (0 Bft)
14.01.2009 22:00 -3,8 C 87 % 1018,0 hPa 0,0 l/m 0,0 km/h (0 Bft) N -5,7 C -3,8 C 0,4 km/h (0 Bft)
14.01.2009 23:00 -3,1 C 88 % 1017,8 hPa 0,0 l/m 1,8 km/h (1 Bft) N -4,8 C -3,1 C 4,4 km/h (1 Bft)
15.01.2009 00:00 -1,8 C 86 % 1017,8 hPa 0,0 l/m 1,5 km/h (1 Bft) NO -3,8 C -1,8 C 5,2 km/h (1 Bft)
15.01.2009 01:00 -0,7 C 81 % 1017,8 hPa 0,0 l/m 3,8 km/h (1 Bft) N-NW -3,5 C -0,7 C 10,1 km/h (2 Bft)
15.01.2009 02:00 -0,4 C 78 % 1018,4 hPa 0,0 l/m 5,9 km/h (2 Bft) NW -3,7 C -0,6 C 13,7 km/h (3 Bft)
15.01.2009 03:00 -0,4 C 78 % 1018,5 hPa 0,0 l/m 5,6 km/h (1 Bft) N -3,8 C -0,7 C 13,3 km/h (3 Bft)
15.01.2009 04:00 -0,3 C 78 % 1018,9 hPa 0,0 l/m 6,5 km/h (2 Bft) N-NW -3,7 C -0,9 C 16,1 km/h (3 Bft)
15.01.2009 05:00 -0,4 C 78 % 1019,1 hPa 0,0 l/m 5,8 km/h (1 Bft) N -3,8 C -0,4 C 15,7 km/h (3 Bft)
15.01.2009 06:00 -0,4 C 76 % 1019,8 hPa 0,0 l/m 9,0 km/h (2 Bft) NW -4,1 C -2,9 C 17,7 km/h (3 Bft)
15.01.2009 07:00 -0,4 C 77 % 1020,3 hPa 0,0 l/m 7,7 km/h (2 Bft) NW -4,0 C -1,8 C 16,1 km/h (3 Bft)
15.01.2009 08:00 -0,2 C 79 % 1020,9 hPa 0,0 l/m 6,0 km/h (2 Bft) W -3,5 C -0,6 C 12,1 km/h (2 Bft)
15.01.2009 09:00 0,7 C 80 % 1021,4 hPa 0,0 l/m 5,7 km/h (1 Bft) W-NW -2,4 C 0,3 C 12,9 km/h (3 Bft)
15.01.2009 10:00 1,1 C 77 % 1021,7 hPa 0,0 l/m 7,3 km/h (2 Bft) W -2,4 C 0,3 C 17,7 km/h (3 Bft)
15.01.2009 11:00 1,6 C 76 % 1021,4 hPa 0,3 l/m 7,1 km/h (2 Bft) NW -2,3 C 0,9 C 17,7 km/h (3 Bft)
15.01.2009 12:00 2,5 C 74 % 1021,1 hPa 0,6 l/m 7,1 km/h (2 Bft) W-NW -1,6 C 1,9 C 16,1 km/h (3 Bft)
15.01.2009 13:00 3,0 C 72 % 1021,0 hPa 1,2 l/m 7,0 km/h (2 Bft) NW -1,6 C 2,3 C 15,7 km/h (3 Bft)
15.01.2009 14:00 3,0 C 72 % 1021,1 hPa 0,9 l/m 5,8 km/h (2 Bft) NW -1,5 C 3,0 C 14,5 km/h (3 Bft)
15.01.2009 15:00 2,8 C 73 % 1021,3 hPa 0,3 l/m 3,3 km/h (1 Bft) N-NW -1,5 C 2,8 C 7,6 km/h (2 Bft)
15.01.2009 16:00 2,5 C 75 % 1021,8 hPa 0,3 l/m 2,6 km/h (1 Bft) N-NW -1,6 C 2,5 C 7,6 km/h (2 Bft)
15.01.2009 17:00 1,8 C 76 % 1022,5 hPa 0,0 l/m 2,4 km/h (1 Bft) NW -2,0 C 1,8 C 6,0 km/h (2 Bft)
15.01.2009 18:00 1,3 C 79 % 1023,1 hPa 0,0 l/m 1,2 km/h (1 Bft) NW -1,9 C 1,3 C 4,4 km/h (1 Bft)
15.01.2009 19:00 1,3 C 82 % 1023,6 hPa 0,0 l/m 1,8 km/h (1 Bft) N-NW -1,5 C 1,3 C 5,6 km/h (1 Bft)
15.01.2009 20:00 1,1 C 83 % 1023,9 hPa 0,0 l/m 2,1 km/h (1 Bft) NW -1,5 C 1,1 C 5,6 km/h (1 Bft)
15.01.2009 21:00 0,1 C 83 % 1024,0 hPa 0,0 l/m 0,1 km/h (0 Bft) N -2,5 C 0,1 C 1,2 km/h (1 Bft)
15.01.2009 22:00 -1,0 C 84 % 1024,1 hPa 0,0 l/m 0,0 km/h (0 Bft) N -3,5 C -1,0 C 0,4 km/h (0 Bft)
15.01.2009 23:00 -1,3 C 87 % 1023,9 hPa 0,0 l/m 0,1 km/h (0 Bft) N -3,3 C -1,3 C 2,0 km/h (1 Bft)
16.01.2009 00:00 -0,5 C 89 % 1023,8 hPa 0,3 l/m 2,2 km/h (1 Bft) O-SO -2,1 C -0,5 C 8,4 km/h (2 Bft)
16.01.2009 01:00 -0,4 C 89 % 1024,1 hPa 0,0 l/m 0,5 km/h (0 Bft) N -2,0 C -0,4 C 2,8 km/h (1 Bft)
16.01.2009 02:00 -0,6 C 89 % 1024,3 hPa 0,0 l/m 0,2 km/h (0 Bft) NW -2,2 C -0,6 C 1,6 km/h (1 Bft)
16.01.2009 03:00 0,1 C 89 % 1024,3 hPa 0,0 l/m 0,5 km/h (0 Bft) N -1,5 C 0,1 C 3,6 km/h (1 Bft)
16.01.2009 04:00 -0,0 C 89 % 1024,4 hPa 0,0 l/m 0,9 km/h (0 Bft) O-NO -1,7 C -0,0 C 5,6 km/h (1 Bft)
16.01.2009 05:00 0,6 C 88 % 1024,7 hPa 0,0 l/m 3,3 km/h (1 Bft) NW -1,2 C 0,6 C 10,1 km/h (2 Bft)
16.01.2009 06:00 1,1 C 86 % 1025,0 hPa 0,0 l/m 4,9 km/h (1 Bft) NW -1,0 C 1,1 C 8,9 km/h (2 Bft)
16.01.2009 07:00 1,3 C 85 % 1025,4 hPa 0,0 l/m 4,3 km/h (1 Bft) N-NW -0,9 C 1,3 C 8,0 km/h (2 Bft)
16.01.2009 08:00 1,3 C 85 % 1026,0 hPa 0,0 l/m 3,1 km/h (1 Bft) NW -1,0 C 1,3 C 8,0 km/h (2 Bft)
16.01.2009 09:00 1,9 C 83 % 1026,4 hPa 0,0 l/m 4,6 km/h (1 Bft) N-NW -0,6 C 1,9 C 10,1 km/h (2 Bft)
16.01.2009 10:00 2,3 C 80 % 1026,9 hPa 0,3 l/m 7,8 km/h (2 Bft) W-NW -0,8 C 1,0 C 16,9 km/h (3 Bft)
16.01.2009 11:00 2,9 C 77 % 1026,7 hPa 0,6 l/m 5,8 km/h (2 Bft) N-NO -0,8 C 2,9 C 16,1 km/h (3 Bft)
16.01.2009 12:00 2,7 C 76 % 1026,5 hPa 0,3 l/m 7,2 km/h (2 Bft) N-NW -1,2 C 1,8 C 14,1 km/h (3 Bft)
16.01.2009 13:00 2,5 C 76 % 1026,7 hPa 0,3 l/m 5,8 km/h (2 Bft) NW -1,3 C 2,5 C 14,1 km/h (3 Bft)
16.01.2009 14:00 2,6 C 75 % 1026,6 hPa 0,0 l/m 4,7 km/h (1 Bft) NW -1,4 C 2,6 C 9,7 km/h (2 Bft)
16.01.2009 15:00 2,7 C 72 % 1026,8 hPa 0,0 l/m 4,2 km/h (1 Bft) NW -1,8 C 2,7 C 10,5 km/h (2 Bft)
16.01.2009 16:00 2,3 C 75 % 1027,1 hPa 0,0 l/m 2,6 km/h (1 Bft) W-NW -1,8 C 2,3 C 6,8 km/h (2 Bft)
16.01.2009 17:00 0,8 C 77 % 1027,4 hPa 0,0 l/m 0,2 km/h (0 Bft) N -2,7 C 0,8 C 2,4 km/h (1 Bft)
16.01.2009 18:00 -1,0 C 80 % 1027,9 hPa 0,0 l/m 0,0 km/h (0 Bft) N -4,1 C -1,0 C 0,4 km/h (0 Bft)
16.01.2009 19:00 -2,6 C 83 % 1028,1 hPa 0,0 l/m 0,0 km/h (0 Bft) N -5,1 C -2,6 C 0,8 km/h (0 Bft)
16.01.2009 20:00 -3,3 C 86 % 1028,2 hPa 0,0 l/m 0,0 km/h (0 Bft) W-SW -5,2 C -3,3 C 1,2 km/h (1 Bft)
16.01.2009 21:00 -3,1 C 88 % 1028,2 hPa 0,0 l/m 1,6 km/h (1 Bft) W-SW -4,8 C -3,1 C 6,8 km/h (2 Bft)
16.01.2009 22:00 -3,6 C 88 % 1027,9 hPa 0,0 l/m 0,0 km/h (0 Bft) N -5,3 C -3,6 C 1,2 km/h (1 Bft)
16.01.2009 23:00 -4,5 C 88 % 1027,3 hPa 0,0 l/m 0,1 km/h (0 Bft) N -6,2 C -4,5 C 2,8 km/h (1 Bft)
17.01.2009 00:00 -5,3 C 88 % 1027,3 hPa 0,0 l/m 0,0 km/h (0 Bft) N -6,9 C -5,3 C 0,0 km/h (0 Bft)
17.01.2009 01:00 -5,9 C 89 % 1027,1 hPa 0,0 l/m 0,2 km/h (0 Bft) N -7,5 C -5,9 C 1,2 km/h (1 Bft)
17.01.2009 02:00 -6,1 C 89 % 1027,1 hPa 0,0 l/m 0,0 km/h (0 Bft) N -7,7 C -6,1 C 1,2 km/h (1 Bft)
17.01.2009 03:00 -6,3 C 89 % 1027,0 hPa 0,0 l/m 0,1 km/h (0 Bft) N -7,8 C -6,3 C 2,0 km/h (1 Bft)
17.01.2009 04:00 -6,8 C 88 % 1026,8 hPa 0,0 l/m 0,1 km/h (0 Bft) N -8,4 C -6,8 C 2,0 km/h (1 Bft)
17.01.2009 05:00 -7,1 C 89 % 1026,6 hPa 0,0 l/m 0,3 km/h (0 Bft) N -8,6 C -7,1 C 3,2 km/h (1 Bft)
17.01.2009 06:00 -7,3 C 88 % 1026,6 hPa 0,0 l/m 0,0 km/h (0 Bft) N -9,0 C -7,3 C 0,8 km/h (0 Bft)
17.01.2009 07:00 -8,0 C 88 % 1026,9 hPa 0,0 l/m 0,0 km/h (0 Bft) N -9,6 C -8,0 C 0,0 km/h (0 Bft)
17.01.2009 08:00 -7,3 C 89 % 1026,8 hPa 0,0 l/m 0,2 km/h (0 Bft) N -8,8 C -7,3 C 2,0 km/h (1 Bft)
17.01.2009 09:00 -6,1 C 90 % 1026,7 hPa 0,0 l/m 0,4 km/h (0 Bft) SO -7,5 C -6,1 C 1,6 km/h (1 Bft)
17.01.2009 10:00 -5,5 C 90 % 1026,7 hPa 0,0 l/m 2,3 km/h (1 Bft) SO -6,8 C -5,5 C 4,8 km/h (1 Bft)
17.01.2009 11:00 -5,0 C 92 % 1026,1 hPa 0,0 l/m 1,4 km/h (1 Bft) O-SO -6,2 C -5,0 C 4,4 km/h (1 Bft)
17.01.2009 12:00 -4,3 C 92 % 1025,5 hPa 0,0 l/m 2,6 km/h (1 Bft) O-SO -5,4 C -4,3 C 5,6 km/h (1 Bft)
17.01.2009 13:00 -3,1 C 92 % 1025,1 hPa 0,0 l/m 2,3 km/h (1 Bft) O-NO -4,3 C -3,1 C 5,6 km/h (1 Bft)
17.01.2009 14:00 -2,1 C 85 % 1024,7 hPa 0,0 l/m 1,6 km/h (1 Bft) O-SO -4,2 C -2,1 C 5,2 km/h (1 Bft)
17.01.2009 15:00 -1,6 C 82 % 1024,3 hPa 0,0 l/m 0,7 km/h (0 Bft) O-SO -4,2 C -1,6 C 4,0 km/h (1 Bft)
17.01.2009 16:00 -1,9 C 83 % 1024,0 hPa 0,0 l/m 0,7 km/h (0 Bft) N -4,5 C -1,9 C 3,2 km/h (1 Bft)
17.01.2009 17:00 -2,2 C 84 % 1023,9 hPa 0,0 l/m 0,3 km/h (0 Bft) N -4,5 C -2,2 C 3,2 km/h (1 Bft)
17.01.2009 18:00 -2,4 C 85 % 1023,7 hPa 0,0 l/m 0,8 km/h (0 Bft) O-SO -4,5 C -2,4 C 3,6 km/h (1 Bft)
17.01.2009 19:00 -2,7 C 87 % 1023,4 hPa 0,0 l/m 1,1 km/h (1 Bft) O-SO -4,6 C -2,7 C 3,6 km/h (1 Bft)
17.01.2009 20:00 -2,8 C 87 % 1023,2 hPa 0,0 l/m 0,2 km/h (0 Bft) N -4,6 C -2,8 C 1,2 km/h (1 Bft)
17.01.2009 21:00 -2,8 C 88 % 1022,8 hPa 0,0 l/m 0,0 km/h (0 Bft) N -4,5 C -2,8 C 0,0 km/h (0 Bft)
17.01.2009 22:00 -2,7 C 88 % 1022,6 hPa 0,0 l/m 0,0 km/h (0 Bft) N -4,4 C -2,7 C 0,0 km/h (0 Bft)
17.01.2009 23:00 -3,3 C 88 % 1022,1 hPa 0,0 l/m 0,0 km/h (0 Bft) N -5,0 C -3,3 C 0,0 km/h (0 Bft)
18.01.2009 00:00 -3,2 C 89 % 1021,4 hPa 0,0 l/m 0,4 km/h (0 Bft) N -4,8 C -3,2 C 4,0 km/h (1 Bft)
18.01.2009 01:00 -2,8 C 90 % 1020,8 hPa 0,0 l/m 0,2 km/h (0 Bft) N -4,2 C -2,8 C 2,8 km/h (1 Bft)
18.01.2009 02:00 -2,9 C 90 % 1020,6 hPa 0,0 l/m 0,3 km/h (0 Bft) N -4,3 C -2,9 C 3,6 km/h (1 Bft)
18.01.2009 03:00 -3,0 C 91 % 1019,8 hPa 0,0 l/m 0,3 km/h (0 Bft) N -4,3 C -3,0 C 4,4 km/h (1 Bft)
18.01.2009 04:00 -3,4 C 91 % 1019,3 hPa 0,0 l/m 0,6 km/h (0 Bft) N -4,7 C -3,4 C 4,8 km/h (1 Bft)
18.01.2009 05:00 -4,3 C 91 % 1019,0 hPa 0,0 l/m 0,1 km/h (0 Bft) N -5,7 C -4,3 C 1,6 km/h (1 Bft)
18.01.2009 06:00 -4,3 C 91 % 1019,1 hPa 0,0 l/m 0,0 km/h (0 Bft) N -5,6 C -4,3 C 1,2 km/h (1 Bft)
18.01.2009 07:00 -4,0 C 91 % 1018,7 hPa 0,0 l/m 0,0 km/h (0 Bft) N -5,3 C -4,0 C 0,8 km/h (0 Bft)
18.01.2009 08:00 -3,9 C 91 % 1018,2 hPa 0,0 l/m 0,6 km/h (0 Bft) N -5,1 C -3,9 C 5,6 km/h (1 Bft)
18.01.2009 09:00 -3,9 C 91 % 1017,2 hPa 0,0 l/m 1,0 km/h (0 Bft) SO -5,1 C -3,9 C 6,8 km/h (2 Bft)
18.01.2009 10:00 -3,6 C 92 % 1016,7 hPa 0,0 l/m 1,6 km/h (1 Bft) S-SO -4,8 C -3,6 C 8,9 km/h (2 Bft)
18.01.2009 11:00 -3,2 C 92 % 1015,8 hPa 0,0 l/m 2,0 km/h (1 Bft) O -4,3 C -3,2 C 7,6 km/h (2 Bft)
18.01.2009 12:00 -3,3 C 92 % 1014,4 hPa 0,0 l/m 1,9 km/h (1 Bft) O-SO -4,4 C -3,3 C 7,2 km/h (2 Bft)
18.01.2009 13:00 -3,3 C 92 % 1013,1 hPa 0,0 l/m 1,2 km/h (1 Bft) O-NO -4,4 C -3,3 C 7,6 km/h (2 Bft)
18.01.2009 14:00 -3,7 C 92 % 1012,0 hPa 0,3 l/m 2,2 km/h (1 Bft) O-SO -4,8 C -3,7 C 8,9 km/h (2 Bft)
18.01.2009 15:00 -3,7 C 92 % 1011,0 hPa 0,0 l/m 2,0 km/h (1 Bft) O-SO -4,8 C -3,7 C 8,4 km/h (2 Bft)
18.01.2009 16:00 -3,5 C 92 % 1010,3 hPa 0,0 l/m 1,6 km/h (1 Bft) O-SO -4,6 C -3,5 C 7,6 km/h (2 Bft)
18.01.2009 17:00 -3,5 C 92 % 1009,5 hPa 0,0 l/m 2,6 km/h (1 Bft) O -4,6 C -3,5 C 6,8 km/h (2 Bft)
18.01.2009 18:00 -3,4 C 92 % 1008,9 hPa 0,0 l/m 2,5 km/h (1 Bft) O -4,5 C -3,4 C 6,4 km/h (2 Bft)
18.01.2009 19:00 -3,3 C 92 % 1008,6 hPa 0,0 l/m 1,6 km/h (1 Bft) O -4,3 C -3,3 C 5,2 km/h (1 Bft)
18.01.2009 20:00 -3,1 C 93 % 1009,2 hPa 0,0 l/m 0,1 km/h (0 Bft) N -4,1 C -3,1 C 1,6 km/h (1 Bft)
18.01.2009 21:00 -2,9 C 93 % 1009,7 hPa 0,0 l/m 1,0 km/h (0 Bft) NW -3,9 C -2,9 C 5,2 km/h (1 Bft)
18.01.2009 22:00 -3,0 C 93 % 1010,1 hPa 0,0 l/m 1,5 km/h (1 Bft) NO -3,9 C -3,0 C 6,0 km/h (2 Bft)
18.01.2009 23:00 -2,9 C 93 % 1010,2 hPa 0,0 l/m 1,3 km/h (1 Bft) O -3,8 C -2,9 C 5,2 km/h (1 Bft)
Min-Datum _ 12.01.09 15.01.09 18.01.09 - 14.01.09 - 12.01.09 12.01.09 14.01.09
_ Min-Zeit 03:30 13:30 19:30 - 10:30 - 02:30 02:45 12:45
Minimum _ -8,2 C 71 % 1008,5 hPa - 0,0 km/h (0 Bft) - -9,8 C -8,1 C 0,0 km/h (0 Bft)
Max-Datum _ 15.01.09 18.01.09 12.01.09 15.01.09 15.01.09 - 16.01.09 15.01.09 12.01.09
_ Max-Zeit 14:00 19:45 00:00 13:00 06:15 - 09:45 14:15 06:30
Maximum _ 3,2 C 93 % 1039,0 hPa 1,2 l/m 10,4 km/h
NW (2 Bft)
- -0,5 C 3,1 C 20,9 km/h
S (4 Bft)
Durchschnitt _ -3,7 C 86 % 1024,1 hPa #5,7 l/m 2,0 km/h (1 Bft) S-SO -5,7 C -3,7 C 6,8 km/h (2 Bft)